createdAt,value
2023-04-16T00:01:59.731Z,87.11
2023-04-16T00:04:26.535Z,86.75
2023-04-16T00:06:53.100Z,85.23
2023-04-16T00:09:19.812Z,86.92
2023-04-16T00:11:46.331Z,86.24
2023-04-16T00:14:12.945Z,87.63
2023-04-16T00:16:39.619Z,87.31
2023-04-16T00:19:07.221Z,87.38
2023-04-16T00:21:33.820Z,86.84
2023-04-16T00:24:00.375Z,87.68
2023-04-16T00:26:32.303Z,87.65
2023-04-16T00:28:59.839Z,86.94
2023-04-16T00:31:30.931Z,87.11
2023-04-16T00:33:57.999Z,86.39
2023-04-16T00:36:25.007Z,87.41
2023-04-16T00:38:51.736Z,86.42
2023-04-16T00:41:18.316Z,86.11
2023-04-16T00:43:44.952Z,86.24
2023-04-16T00:46:14.186Z,86.18
2023-04-16T00:48:41.577Z,85.96
2023-04-16T00:51:08.979Z,84.67
2023-04-16T00:53:35.839Z,85.85
2023-04-16T00:56:06.278Z,84.97
2023-04-16T00:58:34.819Z,85.84
2023-04-16T01:01:01.723Z,84.11
2023-04-16T01:03:44.923Z,84.56
2023-04-16T01:06:12.052Z,85.03
2023-04-16T01:08:38.860Z,85.55
2023-04-16T01:11:05.709Z,85.75
2023-04-16T01:13:32.725Z,84.40
2023-04-16T01:15:59.651Z,84.46
2023-04-16T01:18:29.095Z,83.59
2023-04-16T01:20:59.052Z,83.94
2023-04-16T01:23:28.774Z,83.00
2023-04-16T01:25:58.184Z,82.92
2023-04-16T01:28:25.426Z,84.92
2023-04-16T01:30:52.036Z,83.71
2023-04-16T01:33:37.006Z,83.31
2023-04-16T01:36:03.885Z,83.58
2023-04-16T01:38:30.484Z,83.18
2023-04-16T01:40:59.502Z,83.97
2023-04-16T01:43:26.132Z,83.82
2023-04-16T01:46:09.713Z,84.45
2023-04-16T01:48:36.412Z,83.35
2023-04-16T01:51:04.941Z,83.55
2023-04-16T01:53:31.602Z,84.22
2023-04-16T01:55:58.151Z,84.40
2023-04-16T01:58:27.113Z,83.33
2023-04-16T02:00:53.755Z,82.75
2023-04-16T02:03:20.519Z,84.19
2023-04-16T02:05:47.521Z,84.96
2023-04-16T02:08:14.072Z,83.99
2023-04-16T02:10:40.624Z,83.22
2023-04-16T02:13:08.148Z,84.39
2023-04-16T02:15:34.709Z,83.71
2023-04-16T02:18:03.725Z,84.10
2023-04-16T02:20:30.939Z,84.45
2023-04-16T02:22:59.867Z,84.43
2023-04-16T02:25:29.866Z,83.52
2023-04-16T02:27:57.767Z,83.88
2023-04-16T02:30:38.111Z,84.42
2023-04-16T02:33:10.047Z,83.12
2023-04-16T02:35:43.416Z,84.54
2023-04-16T02:38:12.073Z,84.83
2023-04-16T02:40:38.690Z,83.78
2023-04-16T02:43:05.384Z,83.19
2023-04-16T02:45:32.831Z,82.24
2023-04-16T02:47:59.997Z,82.43
2023-04-16T02:50:26.689Z,82.16
2023-04-16T02:52:53.413Z,83.10
2023-04-16T02:55:22.831Z,81.64
2023-04-16T02:57:49.522Z,83.81
2023-04-16T03:00:16.429Z,82.47
2023-04-16T03:02:45.668Z,82.04
2023-04-16T03:05:12.643Z,81.63
2023-04-16T03:07:40.733Z,81.27
2023-04-16T03:10:07.847Z,81.50
2023-04-16T03:12:34.890Z,81.94
2023-04-16T03:15:01.529Z,81.99
2023-04-16T03:17:28.217Z,81.29
2023-04-16T03:19:55.668Z,81.59
2023-04-16T03:22:22.366Z,82.16
2023-04-16T03:24:48.899Z,84.20
2023-04-16T03:27:15.549Z,83.16
2023-04-16T03:29:42.136Z,82.93
2023-04-16T03:32:09.466Z,82.31
2023-04-16T03:34:37.144Z,81.99
2023-04-16T03:37:06.592Z,84.13
2023-04-16T03:39:34.179Z,84.71
2023-04-16T03:42:01.992Z,85.65
2023-04-16T03:44:30.444Z,84.21
2023-04-16T03:46:57.267Z,83.22
2023-04-16T03:49:23.848Z,83.35
2023-04-16T03:51:53.338Z,82.58
2023-04-16T03:54:23.428Z,82.99
2023-04-16T03:56:59.690Z,84.13
2023-04-16T03:59:26.333Z,83.93
2023-04-16T04:01:52.999Z,84.26
2023-04-16T04:04:19.918Z,83.44
2023-04-16T04:06:47.162Z,83.83
2023-04-16T04:09:14.135Z,82.98
2023-04-16T04:11:42.960Z,82.37
2023-04-16T04:14:09.597Z,83.99
2023-04-16T04:16:36.310Z,83.58
2023-04-16T04:19:03.195Z,82.90
2023-04-16T04:21:29.854Z,83.98
2023-04-16T04:23:57.030Z,83.53
2023-04-16T04:26:23.764Z,83.76
2023-04-16T04:28:52.971Z,82.59
2023-04-16T04:31:22.014Z,82.81
2023-04-16T04:33:48.647Z,82.74
2023-04-16T04:36:15.530Z,83.61
2023-04-16T04:38:42.249Z,83.78
2023-04-16T04:41:08.896Z,84.77
2023-04-16T04:43:40.737Z,83.94
2023-04-16T04:46:07.508Z,85.59
2023-04-16T04:48:39.843Z,84.43
2023-04-16T04:51:06.573Z,84.53
2023-04-16T04:53:33.202Z,83.82
2023-04-16T04:56:09.232Z,82.96
2023-04-16T04:58:39.380Z,83.74
2023-04-16T05:01:06.259Z,83.99
2023-04-16T05:03:33.072Z,83.96
2023-04-16T05:06:02.383Z,83.93
2023-04-16T05:08:28.934Z,83.92
2023-04-16T05:10:56.443Z,84.41
2023-04-16T05:13:23.106Z,83.58
2023-04-16T05:15:49.689Z,83.88
2023-04-16T05:18:16.363Z,83.39
2023-04-16T05:20:42.899Z,83.75
2023-04-16T05:23:09.464Z,83.91
2023-04-16T05:25:36.216Z,83.44
2023-04-16T05:28:02.778Z,83.71
2023-04-16T05:30:29.428Z,83.66
2023-04-16T05:32:58.384Z,83.91
2023-04-16T05:35:24.916Z,83.24
2023-04-16T05:37:51.532Z,81.87
2023-04-16T05:40:18.198Z,82.15
2023-04-16T05:42:44.814Z,80.73
2023-04-16T05:45:11.504Z,81.28
2023-04-16T05:47:38.181Z,81.52
2023-04-16T05:50:07.310Z,80.76
2023-04-16T05:52:44.403Z,80.39
2023-04-16T05:55:13.340Z,79.25
2023-04-16T05:57:39.938Z,80.87
2023-04-16T06:00:06.960Z,79.92
2023-04-16T06:02:40.854Z,80.59
2023-04-16T06:05:07.835Z,80.55
2023-04-16T06:07:34.386Z,81.14
2023-04-16T06:10:01.573Z,81.74
2023-04-16T06:12:28.142Z,81.18
2023-04-16T06:14:54.913Z,80.26
2023-04-16T06:17:22.739Z,79.60
2023-04-16T06:19:49.393Z,80.64
2023-04-16T06:22:16.191Z,82.58
2023-04-16T06:24:42.785Z,81.67
2023-04-16T06:27:20.722Z,82.33
2023-04-16T06:29:47.281Z,81.71
2023-04-16T06:32:13.857Z,81.97
2023-04-16T06:34:40.759Z,82.13
2023-04-16T06:37:10.392Z,81.87
2023-04-16T06:39:37.375Z,80.03
2023-04-16T06:42:04.213Z,81.13
2023-04-16T06:44:30.808Z,81.41
2023-04-16T06:46:58.293Z,81.13
2023-04-16T06:49:24.987Z,81.40
2023-04-16T06:51:51.501Z,81.90
2023-04-16T06:54:19.772Z,80.27
2023-04-16T06:56:46.396Z,80.29
2023-04-16T06:59:13.016Z,80.34
2023-04-16T07:01:39.586Z,82.01
2023-04-16T07:04:08.427Z,81.26
2023-04-16T07:06:35.222Z,80.32
2023-04-16T07:09:01.842Z,79.38
2023-04-16T07:11:28.884Z,82.49
2023-04-16T07:13:55.494Z,82.41
2023-04-16T07:16:22.138Z,82.14
2023-04-16T07:18:51.064Z,80.11
2023-04-16T07:21:17.698Z,82.13
2023-04-16T07:23:44.275Z,81.76
2023-04-16T07:26:11.934Z,82.51
2023-04-16T07:28:38.555Z,82.01
2023-04-16T07:31:05.345Z,83.50
2023-04-16T07:33:31.917Z,82.71
2023-04-16T07:35:58.477Z,81.42
2023-04-16T07:38:30.426Z,81.27
2023-04-16T07:40:57.063Z,83.30
2023-04-16T07:43:23.608Z,83.71
2023-04-16T07:45:50.250Z,82.90
2023-04-16T07:48:16.777Z,82.40
2023-04-16T07:50:43.693Z,81.36
2023-04-16T07:53:17.585Z,80.92
2023-04-16T07:55:44.198Z,81.65
2023-04-16T07:58:13.576Z,81.39
2023-04-16T08:00:42.347Z,81.60
2023-04-16T08:03:11.491Z,81.19
2023-04-16T08:05:38.169Z,80.79
2023-04-16T08:08:04.900Z,80.73
2023-04-16T08:10:31.538Z,81.21
2023-04-16T08:13:00.093Z,79.89
2023-04-16T08:15:26.718Z,80.04
2023-04-16T08:17:53.456Z,79.29
2023-04-16T08:20:20.296Z,79.03
2023-04-16T08:22:46.885Z,79.67
2023-04-16T08:25:14.434Z,79.92
2023-04-16T08:27:41.101Z,80.71
2023-04-16T08:30:08.339Z,81.33
2023-04-16T08:32:34.923Z,80.49
2023-04-16T08:35:01.587Z,79.65
2023-04-16T08:37:28.259Z,78.91
2023-04-16T08:39:54.839Z,79.25
2023-04-16T08:42:32.553Z,79.00
2023-04-16T08:45:13.432Z,78.51
2023-04-16T08:47:49.954Z,78.29
2023-04-16T08:50:20.268Z,78.79
2023-04-16T08:52:51.436Z,77.85
2023-04-16T08:55:20.603Z,78.08
2023-04-16T08:57:58.085Z,77.43
2023-04-16T09:00:24.818Z,79.66
2023-04-16T09:02:52.187Z,79.38
2023-04-16T09:05:25.612Z,78.43
2023-04-16T09:07:52.834Z,78.69
2023-04-16T09:10:19.936Z,78.15
2023-04-16T09:12:46.626Z,77.65
2023-04-16T09:15:13.990Z,77.00
2023-04-16T09:17:43.787Z,77.22
2023-04-16T09:20:11.164Z,77.44
2023-04-16T09:22:38.271Z,75.85
2023-04-16T09:25:05.033Z,76.17
2023-04-16T09:27:32.033Z,75.35
2023-04-16T09:29:58.695Z,77.39
2023-04-16T09:32:27.323Z,76.56
2023-04-16T09:34:57.256Z,77.52
2023-04-16T09:37:24.648Z,78.19
2023-04-16T09:39:58.502Z,77.20
2023-04-16T09:42:45.654Z,76.39
2023-04-16T09:45:13.755Z,76.26
2023-04-16T09:47:41.656Z,76.41
2023-04-16T09:50:10.585Z,75.34
2023-04-16T09:52:38.987Z,75.67
2023-04-16T09:55:06.006Z,75.85
2023-04-16T09:57:32.608Z,77.05
2023-04-16T10:00:04.091Z,76.24
2023-04-16T10:02:31.752Z,76.25
2023-04-16T10:05:00.822Z,75.97
2023-04-16T10:07:34.469Z,77.33
2023-04-16T10:10:01.362Z,75.44
2023-04-16T10:12:28.885Z,76.02
2023-04-16T10:14:55.648Z,76.49
2023-04-16T10:17:24.014Z,76.19
2023-04-16T10:19:59.975Z,75.70
2023-04-16T10:22:29.761Z,75.47
2023-04-16T10:25:01.828Z,75.00
2023-04-16T10:27:29.010Z,74.72
2023-04-16T10:29:56.724Z,77.06
2023-04-16T10:32:28.715Z,75.26
2023-04-16T10:34:55.846Z,75.52
2023-04-16T10:37:32.172Z,73.72
2023-04-16T10:39:59.939Z,73.07
2023-04-16T10:42:27.551Z,73.22
2023-04-16T10:45:00.009Z,72.26
2023-04-16T10:47:29.504Z,71.74
2023-04-16T10:49:56.194Z,70.67
2023-04-16T10:52:25.028Z,71.94
2023-04-16T10:54:52.716Z,72.70
2023-04-16T10:57:20.590Z,72.07
2023-04-16T10:59:48.778Z,70.35
2023-04-16T11:02:17.903Z,73.04
2023-04-16T11:04:49.001Z,72.82
2023-04-16T11:07:18.017Z,72.21
2023-04-16T11:09:51.128Z,71.94
2023-04-16T11:12:19.052Z,73.99
2023-04-16T11:14:49.789Z,73.45
2023-04-16T11:17:21.597Z,73.44
2023-04-16T11:19:48.547Z,72.24
2023-04-16T11:22:17.307Z,73.09
2023-04-16T11:24:44.704Z,71.59
2023-04-16T11:27:14.631Z,71.26
2023-04-16T11:29:41.732Z,72.73
2023-04-16T11:32:08.557Z,70.93
2023-04-16T11:34:35.223Z,72.58
2023-04-16T11:37:01.847Z,71.55
2023-04-16T11:39:28.518Z,71.71
2023-04-16T11:41:56.050Z,72.17
2023-04-16T11:44:27.455Z,72.49
2023-04-16T11:46:54.481Z,70.90
2023-04-16T11:49:30.830Z,70.75
2023-04-16T11:52:00.400Z,72.58
2023-04-16T11:54:29.170Z,71.92
2023-04-16T11:56:55.768Z,71.12
2023-04-16T11:59:23.540Z,70.01
2023-04-16T12:01:51.304Z,71.17
2023-04-16T12:04:27.292Z,69.90
2023-04-16T12:07:10.509Z,69.73
2023-04-16T12:09:40.148Z,71.63
2023-04-16T12:12:30.577Z,70.48
2023-04-16T12:15:00.165Z,72.57
2023-04-16T12:17:26.951Z,70.48
2023-04-16T12:19:57.982Z,70.54
2023-04-16T12:22:31.371Z,71.30
2023-04-16T12:25:03.221Z,69.88
2023-04-16T12:27:45.573Z,68.49
2023-04-16T12:30:13.560Z,68.25
2023-04-16T12:32:41.348Z,68.51
2023-04-16T12:35:09.379Z,67.87
2023-04-16T12:37:36.012Z,68.19
2023-04-16T12:40:02.839Z,67.89
2023-04-16T12:42:35.611Z,67.38
2023-04-16T12:45:04.872Z,67.33
2023-04-16T12:47:31.922Z,67.88
2023-04-16T12:49:59.271Z,68.84
2023-04-16T12:52:25.968Z,67.96
2023-04-16T12:54:53.181Z,66.87
2023-04-16T12:57:19.799Z,68.62
2023-04-16T12:59:47.136Z,68.72
2023-04-16T13:02:13.846Z,68.88
2023-04-16T13:04:41.147Z,67.99
2023-04-16T13:07:08.176Z,67.70
2023-04-16T13:09:34.898Z,67.09
2023-04-16T13:12:01.625Z,67.62
2023-04-16T13:14:28.269Z,66.11
2023-04-16T13:16:54.802Z,65.71
2023-04-16T13:19:23.727Z,64.17
2023-04-16T13:21:50.307Z,64.31
2023-04-16T13:24:16.980Z,63.75
2023-04-16T13:26:43.625Z,66.34
2023-04-16T13:29:10.461Z,66.89
2023-04-16T13:31:38.536Z,67.30
2023-04-16T13:34:05.348Z,65.33
2023-04-16T13:36:34.106Z,66.95
2023-04-16T13:39:00.691Z,67.14
2023-04-16T13:41:27.535Z,66.06
2023-04-16T13:43:55.425Z,67.41
2023-04-16T13:46:22.145Z,66.65
2023-04-16T13:48:48.764Z,67.27
2023-04-16T13:51:16.406Z,67.68
2023-04-16T13:53:42.979Z,67.61
2023-04-16T13:56:10.468Z,68.46
2023-04-16T13:58:37.056Z,68.22
2023-04-16T14:01:03.852Z,68.27
2023-04-16T14:03:32.452Z,68.85
2023-04-16T14:05:59.118Z,70.07
2023-04-16T14:08:27.913Z,68.90
2023-04-16T14:10:55.759Z,69.19
2023-04-16T14:13:22.683Z,68.74
2023-04-16T14:15:49.431Z,69.53
2023-04-16T14:18:16.127Z,69.82
2023-04-16T14:20:44.212Z,69.01
2023-04-16T14:23:12.441Z,69.85
2023-04-16T14:25:39.031Z,69.80
2023-04-16T14:28:05.740Z,70.45
2023-04-16T14:30:32.280Z,70.30
2023-04-16T14:32:59.030Z,68.97
2023-04-16T14:35:25.657Z,69.42
2023-04-16T14:37:52.380Z,70.01
2023-04-16T14:40:19.021Z,69.88
2023-04-16T14:42:45.865Z,68.90
2023-04-16T14:45:12.457Z,68.62
2023-04-16T14:47:45.782Z,68.97
2023-04-16T14:50:12.722Z,68.89
2023-04-16T14:52:39.737Z,68.28
2023-04-16T14:55:06.928Z,67.96
2023-04-16T14:57:33.479Z,67.47
2023-04-16T15:00:00.176Z,67.56
2023-04-16T15:02:26.987Z,66.16
2023-04-16T15:04:54.278Z,66.78
2023-04-16T15:07:24.150Z,66.86
2023-04-16T15:09:51.083Z,66.91
2023-04-16T15:12:19.082Z,66.68
2023-04-16T15:14:46.093Z,67.40
2023-04-16T15:17:12.676Z,66.74
2023-04-16T15:19:39.356Z,66.00
2023-04-16T15:22:05.870Z,66.69
2023-04-16T15:24:32.608Z,66.14
2023-04-16T15:26:59.124Z,66.50
2023-04-16T15:29:25.839Z,66.97
2023-04-16T15:31:52.391Z,66.56
2023-04-16T15:34:18.999Z,66.89
2023-04-16T15:36:45.628Z,66.46
2023-04-16T15:39:12.551Z,66.33
2023-04-16T15:41:50.203Z,67.71
2023-04-16T15:44:26.209Z,67.39
2023-04-16T15:46:52.742Z,68.24
2023-04-16T15:49:19.292Z,68.50
2023-04-16T15:51:46.294Z,67.78
2023-04-16T15:54:13.057Z,68.62
2023-04-16T15:56:39.678Z,69.03
2023-04-16T15:59:06.554Z,68.47
2023-04-16T16:01:33.133Z,68.77
2023-04-16T16:04:07.248Z,69.59
2023-04-16T16:06:34.180Z,70.06
2023-04-16T16:09:00.963Z,70.68
2023-04-16T16:11:27.808Z,72.03
2023-04-16T16:13:54.415Z,73.93
2023-04-16T16:16:21.887Z,74.66
2023-04-16T16:18:48.779Z,75.60
2023-04-16T16:21:15.337Z,77.04
2023-04-16T16:23:42.052Z,76.72
2023-04-16T16:26:09.517Z,78.37
2023-04-16T16:28:39.017Z,77.85
2023-04-16T16:31:06.108Z,78.54
2023-04-16T16:33:33.341Z,78.92
2023-04-16T16:35:59.974Z,78.45
2023-04-16T16:38:27.120Z,79.49
2023-04-16T16:40:53.757Z,80.32
2023-04-16T16:43:20.419Z,80.84
2023-04-16T16:45:47.239Z,81.55
2023-04-16T16:48:13.828Z,81.38
2023-04-16T16:50:40.608Z,81.39
2023-04-16T16:53:07.135Z,82.12
2023-04-16T16:55:35.590Z,81.67
2023-04-16T16:58:02.198Z,81.31
2023-04-16T17:00:28.982Z,79.49
2023-04-16T17:02:55.909Z,80.05
2023-04-16T17:05:22.721Z,81.05
2023-04-16T17:07:49.252Z,81.64
2023-04-16T17:10:21.660Z,80.04
2023-04-16T17:12:48.551Z,79.69
2023-04-16T17:15:15.582Z,78.68
2023-04-16T17:17:42.345Z,78.19
2023-04-16T17:20:10.755Z,78.87
2023-04-16T17:22:37.904Z,78.96
2023-04-16T17:25:05.196Z,77.90
2023-04-16T17:27:34.806Z,76.48
2023-04-16T17:30:01.924Z,79.09
2023-04-16T17:32:29.713Z,78.64
2023-04-16T17:34:56.376Z,77.15
2023-04-16T17:37:23.218Z,76.96
2023-04-16T17:39:49.933Z,77.23
2023-04-16T17:42:16.518Z,76.33
2023-04-16T17:44:43.198Z,75.47
2023-04-16T17:47:09.880Z,75.87
2023-04-16T17:49:36.454Z,77.41
2023-04-16T17:52:03.087Z,76.88
2023-04-16T17:54:29.725Z,76.22
2023-04-16T17:56:57.616Z,75.69
2023-04-16T17:59:24.168Z,77.85
2023-04-16T18:01:51.067Z,76.69
2023-04-16T18:04:18.036Z,76.79
2023-04-16T18:06:45.102Z,77.53
2023-04-16T18:09:12.163Z,77.67
2023-04-16T18:11:38.783Z,77.33
2023-04-16T18:14:05.410Z,76.32
2023-04-16T18:16:34.137Z,77.14
2023-04-16T18:19:00.648Z,77.00
2023-04-16T18:21:27.561Z,77.55
2023-04-16T18:23:54.145Z,76.93
2023-04-16T18:26:22.419Z,78.82
2023-04-16T18:28:49.550Z,77.54
2023-04-16T18:31:20.684Z,76.56
2023-04-16T18:33:57.470Z,77.23
2023-04-16T18:36:27.073Z,77.47
2023-04-16T18:39:01.564Z,77.20
2023-04-16T18:41:29.620Z,77.42
2023-04-16T18:43:59.302Z,76.52
2023-04-16T18:46:27.545Z,78.41
2023-04-16T18:48:54.347Z,78.20
2023-04-16T18:51:21.310Z,78.61
2023-04-16T18:53:47.841Z,79.13
2023-04-16T18:56:14.484Z,79.27
2023-04-16T18:58:41.065Z,79.38
2023-04-16T19:01:11.321Z,79.06
2023-04-16T19:03:38.456Z,78.82
2023-04-16T19:06:06.151Z,78.01
2023-04-16T19:08:32.762Z,78.10
2023-04-16T19:10:59.418Z,78.25
2023-04-16T19:13:26.063Z,78.04
2023-04-16T19:15:57.157Z,77.15
2023-04-16T19:18:23.799Z,77.75
2023-04-16T19:20:51.673Z,76.77
2023-04-16T19:23:19.133Z,77.27
2023-04-16T19:25:45.862Z,77.67
2023-04-16T19:28:12.437Z,76.53
2023-04-16T19:30:40.770Z,76.63
2023-04-16T19:33:07.368Z,77.46
2023-04-16T19:35:35.184Z,75.64
2023-04-16T19:38:01.796Z,75.56
2023-04-16T19:40:28.396Z,75.50
2023-04-16T19:42:55.063Z,75.63
2023-04-16T19:45:25.677Z,77.14
2023-04-16T19:47:52.425Z,75.21
2023-04-16T19:50:19.292Z,76.99
2023-04-16T19:52:45.962Z,78.13
2023-04-16T19:55:12.905Z,76.76
2023-04-16T19:57:39.488Z,76.62
2023-04-16T20:00:11.772Z,76.43
2023-04-16T20:02:39.260Z,76.11
2023-04-16T20:05:05.919Z,76.47
2023-04-16T20:07:32.563Z,76.20
2023-04-16T20:09:59.240Z,75.90
2023-04-16T20:12:25.974Z,75.78
2023-04-16T20:14:52.569Z,76.17
2023-04-16T20:17:20.207Z,75.95
2023-04-16T20:19:51.191Z,76.28
2023-04-16T20:22:18.857Z,74.70
2023-04-16T20:24:47.800Z,76.21
2023-04-16T20:27:15.428Z,76.25
2023-04-16T20:29:42.312Z,74.76
2023-04-16T20:32:09.025Z,75.11
2023-04-16T20:34:36.712Z,74.24
2023-04-16T20:37:06.020Z,75.37
2023-04-16T20:39:40.209Z,75.25
2023-04-16T20:42:10.440Z,75.13
2023-04-16T20:44:40.683Z,75.78
2023-04-16T20:47:07.609Z,76.94
2023-04-16T20:49:38.329Z,75.96
2023-04-16T20:52:05.606Z,75.43
2023-04-16T20:54:32.156Z,76.18
2023-04-16T20:56:58.957Z,76.61
2023-04-16T20:59:26.263Z,76.57
2023-04-16T21:01:53.006Z,78.24
2023-04-16T21:04:19.609Z,78.14
2023-04-16T21:06:46.780Z,77.09
2023-04-16T21:09:13.462Z,77.69
2023-04-16T21:11:40.414Z,78.41
2023-04-16T21:14:07.257Z,77.17
2023-04-16T21:16:33.911Z,77.50
2023-04-16T21:19:00.575Z,77.79
2023-04-16T21:21:27.599Z,76.89
2023-04-16T21:23:54.190Z,75.83
2023-04-16T21:26:20.961Z,77.66
2023-04-16T21:28:50.599Z,76.21
2023-04-16T21:31:17.253Z,76.27
2023-04-16T21:33:43.825Z,77.76
2023-04-16T21:36:11.985Z,76.94
2023-04-16T21:38:38.591Z,76.07
2023-04-16T21:41:05.166Z,77.19
2023-04-16T21:43:33.038Z,77.26
2023-04-16T21:45:59.818Z,77.36
2023-04-16T21:48:27.077Z,77.45
2023-04-16T21:51:06.181Z,76.43
2023-04-16T21:53:33.041Z,76.03
2023-04-16T21:55:59.658Z,76.91
2023-04-16T21:58:26.293Z,75.57
2023-04-16T22:00:52.953Z,76.22
2023-04-16T22:03:19.826Z,75.45
2023-04-16T22:05:46.600Z,75.29
2023-04-16T22:08:23.883Z,76.77
2023-04-16T22:10:51.264Z,76.54
2023-04-16T22:13:17.996Z,75.33
2023-04-16T22:15:44.634Z,76.21
2023-04-16T22:18:12.973Z,76.45
2023-04-16T22:20:39.904Z,75.66
2023-04-16T22:23:06.841Z,75.15
2023-04-16T22:25:33.750Z,74.65
2023-04-16T22:28:01.584Z,75.48
2023-04-16T22:30:28.350Z,75.90
2023-04-16T22:32:55.143Z,75.34
2023-04-16T22:35:22.116Z,75.92
2023-04-16T22:37:48.687Z,76.13
2023-04-16T22:40:18.560Z,75.52
2023-04-16T22:42:45.204Z,75.42
2023-04-16T22:45:12.660Z,76.37
2023-04-16T22:47:39.470Z,75.18
2023-04-16T22:50:07.525Z,75.53
2023-04-16T22:52:34.121Z,75.03
2023-04-16T22:55:00.681Z,76.48
2023-04-16T22:57:27.270Z,75.32
2023-04-16T22:59:53.841Z,75.12
2023-04-16T23:02:22.031Z,75.13
2023-04-16T23:04:48.700Z,75.50
2023-04-16T23:07:15.757Z,74.99
2023-04-16T23:09:42.752Z,76.17
2023-04-16T23:12:09.387Z,77.28
2023-04-16T23:14:37.033Z,76.83
2023-04-16T23:17:05.896Z,76.87
2023-04-16T23:19:32.437Z,76.97
2023-04-16T23:21:59.120Z,77.32
2023-04-16T23:24:25.700Z,77.66
2023-04-16T23:26:52.741Z,78.67
2023-04-16T23:29:20.327Z,76.94
2023-04-16T23:31:47.007Z,77.38
2023-04-16T23:34:13.630Z,77.10
2023-04-16T23:36:40.823Z,77.68
2023-04-16T23:39:07.415Z,76.43
2023-04-16T23:41:34.308Z,76.89
2023-04-16T23:44:00.922Z,76.25
2023-04-16T23:46:27.574Z,77.40
2023-04-16T23:48:55.263Z,76.80
2023-04-16T23:51:22.181Z,79.64
2023-04-16T23:53:48.779Z,79.24
2023-04-16T23:56:16.385Z,78.01
2023-04-16T23:58:42.918Z,78.21
